Time;durP1;ratioP1;P1;durP2;ratioP2;P2;SDS_P1;SDS_P2;PMS_P1;PMS_P2;Temp;Humidity;BMP_temperature;BMP_pressure;BME280_temperature;BME280_humidity;BME280_pressure;Samples;Min_cycle;Max_cycle;Signal;HPM_P1;HPM_P2
2023/01/02 00:00:21;;;;;;;73.90;29.60;;;;;;;;;;5113020;28;20020;-79
2023/01/02 00:02:47;;;;;;;70.30;31.38;;;;;;;;;;5113867;28;20016;-77
2023/01/02 00:05:14;;;;;;;66.68;30.15;;;;;;;;;;5096346;28;20073;-78
2023/01/02 00:07:40;;;;;;;63.28;29.85;;;;;;;;;;5093332;28;20023;-78
2023/01/02 00:10:06;;;;;;;69.43;29.52;;;;;;;;;;5094907;28;20601;-77
2023/01/02 00:12:32;;;;;;;75.07;30.08;;;;;;;;;;5093846;28;20426;-77
2023/01/02 00:14:58;;;;;;;70.32;28.77;;;;;;;;;;5100891;28;20051;-77
2023/01/02 00:17:24;;;;;;;71.55;30.58;;;;;;;;;;5107154;28;20393;-76
2023/01/02 00:19:50;;;;;;;74.18;30.70;;;;;;;;;;5094121;28;20024;-78
2023/01/02 00:22:16;;;;;;;73.43;29.40;;;;;;;;;;5092855;28;20031;-78
2023/01/02 00:24:42;;;;;;;68.18;29.85;;;;;;;;;;5100814;28;20020;-78
2023/01/02 00:27:08;;;;;;;64.75;29.45;;;;;;;;;;5114739;28;20400;-77
2023/01/02 00:29:34;;;;;;;69.25;27.35;;;;;;;;;;5108650;28;20032;-78
2023/01/02 00:32:00;;;;;;;71.95;28.58;;;;;;;;;;5100127;28;20023;-79
2023/01/02 00:34:26;;;;;;;71.75;29.85;;;;;;;;;;5101187;28;20152;-78
2023/01/02 00:36:52;;;;;;;78.82;30.30;;;;;;;;;;5113087;28;20030;-78
2023/01/02 00:39:18;;;;;;;63.08;27.33;;;;;;;;;;5113128;28;20027;-78
2023/01/02 00:41:44;;;;;;;65.40;27.67;;;;;;;;;;5112203;28;20125;-78
2023/01/02 00:44:10;;;;;;;68.75;28.55;;;;;;;;;;5107724;28;20119;-77
2023/01/02 00:46:36;;;;;;;67.65;29.35;;;;;;;;;;5093310;28;20028;-79
2023/01/02 00:49:02;;;;;;;83.65;31.50;;;;;;;;;;5092693;28;20490;-78
2023/01/02 00:51:28;;;;;;;66.82;29.10;;;;;;;;;;5092938;28;20081;-78
2023/01/02 00:53:54;;;;;;;59.63;28.05;;;;;;;;;;5093232;28;20537;-79
2023/01/02 00:56:20;;;;;;;69.63;28.98;;;;;;;;;;5107938;28;20030;-77
2023/01/02 00:58:46;;;;;;;64.93;29.10;;;;;;;;;;5102460;28;20449;-79
2023/01/02 01:01:12;;;;;;;72.47;31.85;;;;;;;;;;5093144;28;20560;-79
2023/01/02 01:03:42;;;;;;;69.05;30.05;;;;;;;;;;5092497;28;20063;-78
2023/01/02 01:06:08;;;;;;;71.07;28.38;;;;;;;;;;5094024;28;20370;-79
2023/01/02 01:08:35;;;;;;;67.53;29.25;;;;;;;;;;5096267;28;20027;-79
2023/01/02 01:11:12;;;;;;;65.43;27.90;;;;;;;;;;5107200;28;20020;-78
2023/01/02 01:13:38;;;;;;;66.13;29.20;;;;;;;;;;5101587;28;20081;-78
2023/01/02 01:16:05;;;;;;;75.43;30.50;;;;;;;;;;5092802;28;20020;-80
2023/01/02 01:18:31;;;;;;;68.80;31.40;;;;;;;;;;5090839;28;20055;-76
2023/01/02 01:20:58;;;;;;;70.18;30.40;;;;;;;;;;5091799;28;20024;-77
2023/01/02 01:23:24;;;;;;;74.15;30.27;;;;;;;;;;5107886;28;20035;-79
2023/01/02 01:25:50;;;;;;;58.45;27.52;;;;;;;;;;5108408;28;20024;-79
2023/01/02 01:28:16;;;;;;;64.60;27.98;;;;;;;;;;5095325;28;20363;-80
2023/01/02 01:30:42;;;;;;;63.92;28.60;;;;;;;;;;5101252;28;20026;-80
2023/01/02 01:33:08;;;;;;;65.22;28.98;;;;;;;;;;5117355;28;20028;-80
2023/01/02 01:35:34;;;;;;;64.55;29.02;;;;;;;;;;5113018;28;20024;-79
2023/01/02 01:37:59;;;;;;;63.50;28.65;;;;;;;;;;5115487;28;20035;-80
2023/01/02 01:40:25;;;;;;;72.32;28.58;;;;;;;;;;5101465;28;20101;-80
2023/01/02 01:42:51;;;;;;;70.07;28.00;;;;;;;;;;5109304;28;20053;-81
2023/01/02 01:45:19;;;;;;;63.00;28.48;;;;;;;;;;5116511;28;20040;-80
2023/01/02 01:47:48;;;;;;;67.43;28.88;;;;;;;;;;5118079;28;20397;-81
2023/01/02 01:50:28;;;;;;;66.22;29.00;;;;;;;;;;5115636;28;20016;-81
2023/01/02 01:52:59;;;;;;;68.72;29.88;;;;;;;;;;5105528;28;20027;-82
2023/01/02 01:55:32;;;;;;;62.42;29.55;;;;;;;;;;5106047;28;20194;-80
2023/01/02 01:58:01;;;;;;;60.60;28.27;;;;;;;;;;5104752;28;20020;-79
2023/01/02 02:00:27;;;;;;;70.57;30.10;;;;;;;;;;5106665;28;20020;-80
2023/01/02 02:02:57;;;;;;;70.82;29.65;;;;;;;;;;5108809;28;20095;-79
2023/01/02 02:05:25;;;;;;;67.90;29.00;;;;;;;;;;5109199;28;20054;-80
2023/01/02 02:08:01;;;;;;;72.65;29.95;;;;;;;;;;5096436;28;20534;-80
2023/01/02 02:10:27;;;;;;;67.93;31.58;;;;;;;;;;5096289;28;20031;-80
2023/01/02 02:12:53;;;;;;;58.00;28.98;;;;;;;;;;5095890;28;20020;-80
2023/01/02 02:15:22;;;;;;;67.97;29.10;;;;;;;;;;5105323;28;20132;-80
2023/01/02 02:18:07;;;;;;;61.30;28.60;;;;;;;;;;5110651;28;20055;-81
2023/01/02 02:20:39;;;;;;;66.47;27.85;;;;;;;;;;5108702;28;20489;-80
2023/01/02 02:23:14;;;;;;;65.05;28.98;;;;;;;;;;5095759;28;20059;-80
2023/01/02 02:25:52;;;;;;;60.70;27.42;;;;;;;;;;5108156;28;20466;-79
2023/01/02 02:28:31;;;;;;;58.92;27.63;;;;;;;;;;5105960;28;20030;-80
2023/01/02 02:31:11;;;;;;;60.03;28.20;;;;;;;;;;5097943;28;20020;-79
2023/01/02 02:33:44;;;;;;;59.08;27.10;;;;;;;;;;5099255;28;20038;-81
2023/01/02 02:36:25;;;;;;;62.90;28.63;;;;;;;;;;5097258;28;20024;-79
2023/01/02 02:38:54;;;;;;;55.58;25.40;;;;;;;;;;5095439;28;20047;-79
2023/01/02 02:41:23;;;;;;;62.20;27.92;;;;;;;;;;5098208;28;20107;-80
2023/01/02 02:43:59;;;;;;;61.50;29.73;;;;;;;;;;5096590;28;20051;-80
2023/01/02 02:46:31;;;;;;;56.80;27.52;;;;;;;;;;5102022;28;20057;-80
2023/01/02 02:49:09;;;;;;;61.88;28.45;;;;;;;;;;5120965;28;20016;-80
2023/01/02 02:51:42;;;;;;;57.80;25.88;;;;;;;;;;5108903;28;20095;-79
2023/01/02 02:54:11;;;;;;;51.50;25.67;;;;;;;;;;5114523;28;20099;-80
2023/01/02 02:56:37;;;;;;;53.65;25.38;;;;;;;;;;5098481;28;20161;-80
2023/01/02 02:59:04;;;;;;;54.33;25.58;;;;;;;;;;5100292;28;20107;-79
2023/01/02 03:01:30;;;;;;;64.00;26.30;;;;;;;;;;5100448;28;20375;-82
2023/01/02 03:03:56;;;;;;;57.63;27.48;;;;;;;;;;5105022;28;20020;-80
2023/01/02 03:06:32;;;;;;;59.42;27.40;;;;;;;;;;5100010;28;20089;-80
2023/01/02 03:09:07;;;;;;;60.17;26.83;;;;;;;;;;5099874;28;20047;-79
2023/01/02 03:11:42;;;;;;;58.17;27.15;;;;;;;;;;5114578;28;20106;-80
2023/01/02 03:14:14;;;;;;;58.30;27.30;;;;;;;;;;5115932;28;20024;-81
2023/01/02 03:16:41;;;;;;;52.80;26.67;;;;;;;;;;5099023;28;20393;-80
2023/01/02 03:19:13;;;;;;;64.72;28.88;;;;;;;;;;5116265;28;20450;-80
2023/01/02 03:21:42;;;;;;;56.22;25.70;;;;;;;;;;5106297;28;20036;-80
2023/01/02 03:24:10;;;;;;;57.47;28.33;;;;;;;;;;5098414;28;20039;-80
2023/01/02 03:26:37;;;;;;;61.00;28.38;;;;;;;;;;5098829;28;20024;-80
2023/01/02 03:29:07;;;;;;;58.55;26.83;;;;;;;;;;5117339;28;20024;-80
2023/01/02 03:31:36;;;;;;;62.65;26.17;;;;;;;;;;5118784;28;20019;-79
2023/01/02 03:34:08;;;;;;;59.53;26.98;;;;;;;;;;5100983;28;20028;-80
2023/01/02 03:36:37;;;;;;;57.58;26.75;;;;;;;;;;5099201;28;20059;-81
2023/01/02 03:39:09;;;;;;;63.42;26.33;;;;;;;;;;5109026;28;20020;-80
2023/01/02 03:41:37;;;;;;;60.50;26.80;;;;;;;;;;5102753;28;20024;-80
2023/01/02 03:44:03;;;;;;;57.55;26.55;;;;;;;;;;5099349;28;20138;-79
2023/01/02 03:46:32;;;;;;;63.92;26.63;;;;;;;;;;5117720;27;20031;-81
2023/01/02 03:49:06;;;;;;;62.65;26.52;;;;;;;;;;5114000;28;20024;-81
2023/01/02 03:51:33;;;;;;;60.03;27.33;;;;;;;;;;5114100;28;20027;-80
2023/01/02 03:54:00;;;;;;;66.57;27.98;;;;;;;;;;5117230;28;20027;-80
2023/01/02 03:56:45;;;;;;;66.35;28.63;;;;;;;;;;5118898;28;20088;-80
2023/01/02 03:59:26;;;;;;;56.17;26.20;;;;;;;;;;5099001;28;20028;-79
2023/01/02 04:01:59;;;;;;;64.75;28.08;;;;;;;;;;5109492;28;20455;-79
2023/01/02 04:04:39;;;;;;;56.65;26.95;;;;;;;;;;5099953;28;20043;-80
2023/01/02 04:07:10;;;;;;;48.05;24.90;;;;;;;;;;5101685;28;20020;-80
2023/01/02 04:09:37;;;;;;;63.50;26.35;;;;;;;;;;5118087;28;20023;-80
2023/01/02 04:12:08;;;;;;;49.90;25.05;;;;;;;;;;5118699;28;20452;-79
2023/01/02 04:14:37;;;;;;;50.15;24.23;;;;;;;;;;5110062;28;20038;-80
2023/01/02 04:17:07;;;;;;;47.63;22.35;;;;;;;;;;5116261;28;20039;-80
2023/01/02 04:19:40;;;;;;;53.13;25.60;;;;;;;;;;5105832;28;20020;-80
2023/01/02 04:22:07;;;;;;;56.28;27.58;;;;;;;;;;5114025;28;20502;-80
2023/01/02 04:24:36;;;;;;;48.58;24.08;;;;;;;;;;5103612;28;20040;-80
2023/01/02 04:27:24;;;;;;;49.70;24.90;;;;;;;;;;5101215;28;20031;-80
2023/01/02 04:29:50;;;;;;;42.45;23.88;;;;;;;;;;5104725;28;20370;-80
2023/01/02 04:32:20;;;;;;;51.65;25.10;;;;;;;;;;5111335;28;20110;-80
2023/01/02 04:34:46;;;;;;;49.15;24.30;;;;;;;;;;5105440;28;20020;-80
2023/01/02 04:37:35;;;;;;;42.83;22.90;;;;;;;;;;5097367;28;20032;-79
2023/01/02 04:40:07;;;;;;;50.65;21.55;;;;;;;;;;5094197;28;20036;-81
2023/01/02 04:42:33;;;;;;;60.92;27.25;;;;;;;;;;5097742;28;21014;-80
2023/01/02 04:44:59;;;;;;;57.97;26.63;;;;;;;;;;5109635;28;20092;-81
2023/01/02 04:47:25;;;;;;;51.53;23.13;;;;;;;;;;5113466;27;20039;-80
2023/01/02 04:49:52;;;;;;;43.15;22.73;;;;;;;;;;5097565;28;20079;-81
2023/01/02 04:52:18;;;;;;;59.42;24.90;;;;;;;;;;5097266;28;20441;-80
2023/01/02 04:54:44;;;;;;;44.90;22.23;;;;;;;;;;5106276;28;20039;-80
2023/01/02 04:57:10;;;;;;;46.85;23.98;;;;;;;;;;5097208;28;20421;-81
2023/01/02 04:59:36;;;;;;;46.60;23.38;;;;;;;;;;5097560;28;20024;-81
2023/01/02 05:02:02;;;;;;;52.88;24.20;;;;;;;;;;5099414;28;20028;-81
2023/01/02 05:04:28;;;;;;;54.28;24.48;;;;;;;;;;5101979;28;20038;-81
2023/01/02 05:06:54;;;;;;;50.85;23.52;;;;;;;;;;5096300;28;20024;-81
2023/01/02 05:09:20;;;;;;;51.00;23.05;;;;;;;;;;5096013;28;20050;-80
2023/01/02 05:11:46;;;;;;;51.30;23.42;;;;;;;;;;5104431;28;20020;-81
2023/01/02 05:14:12;;;;;;;49.33;24.48;;;;;;;;;;5099146;28;20024;-82
2023/01/02 05:16:38;;;;;;;46.22;23.73;;;;;;;;;;5097577;28;20078;-81
2023/01/02 05:19:04;;;;;;;45.15;23.00;;;;;;;;;;5097669;28;20489;-80
2023/01/02 05:24:14;;;;;;;49.88;23.33;;;;;;;;;;5108980;28;20059;-81
2023/01/02 05:26:40;;;;;;;45.55;23.95;;;;;;;;;;5097835;28;20028;-80
2023/01/02 05:29:06;;;;;;;49.42;22.80;;;;;;;;;;5097438;28;20020;-81
2023/01/02 05:31:32;;;;;;;54.45;25.00;;;;;;;;;;5099370;28;20405;-80
2023/01/02 05:33:59;;;;;;;51.38;23.27;;;;;;;;;;5110634;28;20036;-82
2023/01/02 05:36:25;;;;;;;59.28;25.63;;;;;;;;;;5110752;28;20051;-79
2023/01/02 05:38:52;;;;;;;55.40;24.20;;;;;;;;;;5106642;28;20020;-82
2023/01/02 05:41:19;;;;;;;61.92;26.08;;;;;;;;;;5114720;28;20049;-81
2023/01/02 05:43:45;;;;;;;55.15;25.63;;;;;;;;;;5100113;28;20044;-81
2023/01/02 05:46:11;;;;;;;51.13;24.17;;;;;;;;;;5103354;28;20019;-82
2023/01/02 05:48:37;;;;;;;53.80;25.20;;;;;;;;;;5115825;28;20587;-82
2023/01/02 05:51:04;;;;;;;54.50;25.13;;;;;;;;;;5116554;28;20024;-82
2023/01/02 05:53:30;;;;;;;62.55;26.63;;;;;;;;;;5114379;28;20034;-82
2023/01/02 05:56:03;;;;;;;56.22;25.67;;;;;;;;;;5117395;28;20058;-82
2023/01/02 05:58:30;;;;;;;57.00;25.00;;;;;;;;;;5105886;28;20700;-82
2023/01/02 06:01:02;;;;;;;55.88;27.65;;;;;;;;;;5118414;28;20551;-82
2023/01/02 06:03:28;;;;;;;54.95;26.50;;;;;;;;;;5100784;28;20047;-82
2023/01/02 06:05:54;;;;;;;66.05;26.42;;;;;;;;;;5099936;28;20515;-81
2023/01/02 06:08:20;;;;;;;68.47;25.48;;;;;;;;;;5117077;28;20133;-82
2023/01/02 06:10:50;;;;;;;64.00;25.73;;;;;;;;;;5114311;28;20016;-82
2023/01/02 06:13:16;;;;;;;56.28;26.05;;;;;;;;;;5096066;28;20052;-82
2023/01/02 06:15:42;;;;;;;59.67;25.58;;;;;;;;;;5097445;28;20036;-82
2023/01/02 06:18:08;;;;;;;59.75;25.20;;;;;;;;;;5113945;28;20050;-82
2023/01/02 06:20:34;;;;;;;62.15;26.95;;;;;;;;;;5119368;28;20401;-81
2023/01/02 06:23:00;;;;;;;56.83;24.83;;;;;;;;;;5118933;28;20024;-82
2023/01/02 06:25:26;;;;;;;59.10;28.73;;;;;;;;;;5124107;28;20032;-82
2023/01/02 06:27:52;;;;;;;61.67;27.60;;;;;;;;;;5118307;28;20501;-82
2023/01/02 06:30:18;;;;;;;55.05;26.95;;;;;;;;;;5119945;27;20485;-82
2023/01/02 06:32:44;;;;;;;65.10;29.45;;;;;;;;;;5101386;28;20028;-82
2023/01/02 06:35:10;;;;;;;61.28;25.70;;;;;;;;;;5107365;27;20023;-82
2023/01/02 06:37:36;;;;;;;58.60;27.88;;;;;;;;;;5121463;28;20038;-81
2023/01/02 06:40:02;;;;;;;49.72;25.70;;;;;;;;;;5112917;28;20473;-81
2023/01/02 06:42:28;;;;;;;61.97;29.08;;;;;;;;;;5121318;28;20024;-82
2023/01/02 06:44:54;;;;;;;52.08;25.17;;;;;;;;;;5119487;28;20099;-82
2023/01/02 06:47:20;;;;;;;52.90;25.23;;;;;;;;;;5119842;28;20023;-82
2023/01/02 06:49:46;;;;;;;50.25;22.77;;;;;;;;;;5110105;28;20055;-82
2023/01/02 06:52:12;;;;;;;58.38;24.50;;;;;;;;;;5098860;28;20440;-82
2023/01/02 06:54:38;;;;;;;61.17;26.58;;;;;;;;;;5104640;28;20031;-82
2023/01/02 06:57:04;;;;;;;51.92;25.98;;;;;;;;;;5116292;28;20054;-82
2023/01/02 06:59:30;;;;;;;53.58;23.85;;;;;;;;;;5121355;28;20466;-82
2023/01/02 07:01:56;;;;;;;56.08;25.85;;;;;;;;;;5113957;28;20424;-82
2023/01/02 07:04:22;;;;;;;61.10;26.38;;;;;;;;;;5118840;28;20588;-83
2023/01/02 07:06:48;;;;;;;60.35;24.90;;;;;;;;;;5120867;28;20062;-82
2023/01/02 07:09:14;;;;;;;49.55;23.25;;;;;;;;;;5111003;28;20076;-82
2023/01/02 07:11:40;;;;;;;59.58;25.67;;;;;;;;;;5117344;27;20543;-82
2023/01/02 07:14:06;;;;;;;44.47;23.88;;;;;;;;;;5132874;27;20016;-80
2023/01/02 07:16:32;;;;;;;56.67;26.33;;;;;;;;;;5138676;28;20027;-81
2023/01/02 07:18:58;;;;;;;52.28;25.08;;;;;;;;;;5138122;28;20027;-80
2023/01/02 07:21:24;;;;;;;50.90;23.65;;;;;;;;;;5139870;28;20004;-80
2023/01/02 07:23:51;;;;;;;58.15;25.25;;;;;;;;;;5126846;27;20408;-83
2023/01/02 07:26:17;;;;;;;56.92;24.83;;;;;;;;;;5116609;28;20017;-83
2023/01/02 07:28:43;;;;;;;44.47;24.45;;;;;;;;;;5117476;28;20027;-82
2023/01/02 07:31:13;;;;;;;51.97;23.38;;;;;;;;;;5119904;28;20019;-83
2023/01/02 07:33:39;;;;;;;50.30;24.35;;;;;;;;;;5118594;28;20028;-82
2023/01/02 07:36:06;;;;;;;47.95;24.17;;;;;;;;;;5120814;28;20024;-83
2023/01/02 07:38:33;;;;;;;52.15;24.45;;;;;;;;;;5123330;28;20102;-81
2023/01/02 07:40:59;;;;;;;44.75;21.77;;;;;;;;;;5120476;28;20030;-83
2023/01/02 07:43:25;;;;;;;50.97;24.55;;;;;;;;;;5115283;28;20031;-82
2023/01/02 07:45:51;;;;;;;47.38;21.73;;;;;;;;;;5125521;28;20024;-80
2023/01/02 07:48:18;;;;;;;48.42;21.45;;;;;;;;;;5130812;28;20027;-80
2023/01/02 07:50:45;;;;;;;51.38;21.90;;;;;;;;;;5130160;27;20026;-79
2023/01/02 07:53:11;;;;;;;57.60;21.80;;;;;;;;;;5122866;27;20015;-82
2023/01/02 07:55:37;;;;;;;52.85;23.80;;;;;;;;;;5121067;28;20119;-82
2023/01/02 07:58:03;;;;;;;57.00;25.55;;;;;;;;;;5115754;27;20063;-83
2023/01/02 08:00:29;;;;;;;51.90;23.15;;;;;;;;;;5120005;28;20028;-82
2023/01/02 08:02:55;;;;;;;51.47;23.63;;;;;;;;;;5108492;28;20080;-82
2023/01/02 08:05:22;;;;;;;52.92;23.33;;;;;;;;;;5111753;27;20024;-82
2023/01/02 08:07:48;;;;;;;57.95;26.67;;;;;;;;;;5112794;28;20133;-81
2023/01/02 08:10:14;;;;;;;50.55;25.00;;;;;;;;;;5115476;28;20497;-81
2023/01/02 08:12:40;;;;;;;51.60;23.23;;;;;;;;;;5110510;28;20031;-83
2023/01/02 08:15:06;;;;;;;56.55;27.00;;;;;;;;;;5112349;28;20027;-83
2023/01/02 08:17:32;;;;;;;53.75;24.15;;;;;;;;;;5103918;28;20063;-83
2023/01/02 08:19:58;;;;;;;71.30;28.33;;;;;;;;;;5120667;28;20049;-83
2023/01/02 08:22:24;;;;;;;67.82;27.55;;;;;;;;;;5118865;28;20039;-82
2023/01/02 08:24:50;;;;;;;77.97;31.10;;;;;;;;;;5120623;28;20034;-82
2023/01/02 08:27:16;;;;;;;69.28;29.10;;;;;;;;;;5112956;28;20020;-83
2023/01/02 08:29:42;;;;;;;59.25;28.75;;;;;;;;;;5115714;27;20016;-82
2023/01/02 08:32:08;;;;;;;63.28;26.30;;;;;;;;;;5107790;28;20095;-82
2023/01/02 08:34:35;;;;;;;56.15;24.30;;;;;;;;;;5108303;28;20063;-81
2023/01/02 08:37:01;;;;;;;56.72;25.05;;;;;;;;;;5110581;28;20024;-82
2023/01/02 08:39:29;;;;;;;55.80;23.83;;;;;;;;;;5112251;27;20061;-81
2023/01/02 08:41:57;;;;;;;66.53;26.80;;;;;;;;;;5120922;27;20062;-82
2023/01/02 08:44:23;;;;;;;59.95;27.08;;;;;;;;;;5100518;28;20087;-82
2023/01/02 08:46:49;;;;;;;48.85;25.73;;;;;;;;;;5103616;28;20108;-80
2023/01/02 08:49:15;;;;;;;58.25;24.17;;;;;;;;;;5105619;27;20047;-83
2023/01/02 08:51:41;;;;;;;48.78;22.65;;;;;;;;;;5105500;27;20026;-82
2023/01/02 08:54:07;;;;;;;48.75;22.58;;;;;;;;;;5112716;28;20036;-82
2023/01/02 08:56:34;;;;;;;58.80;24.08;;;;;;;;;;5111046;28;20028;-82
2023/01/02 08:59:05;;;;;;;53.67;22.58;;;;;;;;;;5111593;27;21556;-82
2023/01/02 09:01:31;;;;;;;47.13;22.55;;;;;;;;;;5117038;27;20425;-82
2023/01/02 09:03:57;;;;;;;52.05;24.95;;;;;;;;;;5114390;27;20047;-82
2023/01/02 09:06:24;;;;;;;44.75;21.42;;;;;;;;;;5097404;28;20034;-81
2023/01/02 09:08:51;;;;;;;40.28;19.52;;;;;;;;;;5097902;28;20393;-82
2023/01/02 09:11:18;;;;;;;48.20;21.77;;;;;;;;;;5097743;28;20469;-83
2023/01/02 09:13:45;;;;;;;45.00;22.15;;;;;;;;;;5102366;28;20028;-81
2023/01/02 09:16:11;;;;;;;43.78;20.27;;;;;;;;;;5099377;28;20024;-82
2023/01/02 09:18:38;;;;;;;38.50;20.23;;;;;;;;;;5099497;28;20036;-82
2023/01/02 09:21:04;;;;;;;43.22;20.73;;;;;;;;;;5108471;28;20028;-83
2023/01/02 09:23:31;;;;;;;50.10;21.23;;;;;;;;;;5107958;28;20038;-82
2023/01/02 09:26:01;;;;;;;47.92;22.30;;;;;;;;;;5110817;27;20111;-81
2023/01/02 09:28:28;;;;;;;47.08;20.25;;;;;;;;;;5101766;28;20023;-83
2023/01/02 09:30:54;;;;;;;49.05;21.45;;;;;;;;;;5107255;28;20039;-82
2023/01/02 09:33:20;;;;;;;50.28;20.67;;;;;;;;;;5103440;28;20114;-83
2023/01/02 09:35:46;;;;;;;57.65;27.98;;;;;;;;;;5118421;27;20050;-82
2023/01/02 09:38:13;;;;;;;46.97;22.17;;;;;;;;;;5102245;27;20027;-83
2023/01/02 09:40:45;;;;;;;47.55;22.77;;;;;;;;;;5103185;28;20098;-80
2023/01/02 09:43:12;;;;;;;51.17;22.45;;;;;;;;;;5098799;28;20031;-81
2023/01/02 09:45:42;;;;;;;50.22;24.10;;;;;;;;;;5113329;28;20051;-81
2023/01/02 09:48:10;;;;;;;50.60;22.48;;;;;;;;;;5099651;28;20024;-83
2023/01/02 09:50:36;;;;;;;50.10;21.85;;;;;;;;;;5100264;28;20024;-83
2023/01/02 09:53:03;;;;;;;53.63;23.25;;;;;;;;;;5093590;28;20027;-82
2023/01/02 09:55:37;;;;;;;44.90;21.02;;;;;;;;;;5098307;28;20089;-82
2023/01/02 09:58:03;;;;;;;56.03;21.55;;;;;;;;;;5094805;28;20222;-83
2023/01/02 10:00:34;;;;;;;44.70;19.95;;;;;;;;;;5108867;28;20065;-80
2023/01/02 10:03:11;;;;;;;42.53;20.85;;;;;;;;;;5094932;28;20092;-83
2023/01/02 10:05:55;;;;;;;44.72;21.83;;;;;;;;;;5105310;28;20373;-82
2023/01/02 10:08:27;;;;;;;53.47;22.50;;;;;;;;;;5101126;28;20511;-83
2023/01/02 10:11:03;;;;;;;53.40;21.02;;;;;;;;;;5107580;28;20016;-83
2023/01/02 10:13:29;;;;;;;55.97;22.20;;;;;;;;;;5110227;28;20147;-83
2023/01/02 10:15:57;;;;;;;47.33;21.30;;;;;;;;;;5112868;28;20067;-84
2023/01/02 10:18:25;;;;;;;53.20;20.85;;;;;;;;;;5106659;28;20140;-83
2023/01/02 10:20:54;;;;;;;42.53;19.75;;;;;;;;;;5109037;28;20031;-81
2023/01/02 10:23:25;;;;;;;48.83;21.42;;;;;;;;;;5113516;28;20023;-84
2023/01/02 10:25:53;;;;;;;44.85;18.92;;;;;;;;;;5111735;28;20035;-83
2023/01/02 10:28:25;;;;;;;41.85;19.35;;;;;;;;;;5099783;28;20035;-82
2023/01/02 10:30:59;;;;;;;51.67;20.97;;;;;;;;;;5110051;28;20027;-82
2023/01/02 10:33:31;;;;;;;48.20;19.55;;;;;;;;;;5113914;28;20032;-81
2023/01/02 10:35:57;;;;;;;;;;;;;;;;;;5113735;28;20016;-82
2023/01/02 10:38:24;;;;;;;46.72;17.63;;;;;;;;;;5112177;28;19908;-81
2023/01/02 10:40:50;;;;;;;42.92;19.15;;;;;;;;;;5108446;28;20019;-82
2023/01/02 10:43:17;;;;;;;48.22;20.17;;;;;;;;;;5100528;28;20024;-83
2023/01/02 10:45:43;;;;;;;48.42;20.10;;;;;;;;;;5109422;28;20029;-82
2023/01/02 10:48:13;;;;;;;54.50;22.42;;;;;;;;;;5104100;28;20024;-83
2023/01/02 10:50:50;;;;;;;45.20;19.77;;;;;;;;;;5102364;28;20090;-83
2023/01/02 10:53:21;;;;;;;56.20;23.98;;;;;;;;;;5107970;28;20051;-82
2023/01/02 10:55:47;;;;;;;48.40;21.20;;;;;;;;;;5105826;28;20122;-82
2023/01/02 10:58:16;;;;;;;45.63;19.35;;;;;;;;;;5096629;28;20020;-82
2023/01/02 11:00:42;;;;;;;44.78;21.67;;;;;;;;;;5096300;28;20036;-82
2023/01/02 11:03:14;;;;;;;40.53;20.05;;;;;;;;;;5100175;28;20089;-82
2023/01/02 11:05:44;;;;;;;48.63;20.15;;;;;;;;;;5094721;28;20484;-82
2023/01/02 11:08:12;;;;;;;49.67;25.20;;;;;;;;;;5095425;28;20012;-83
2023/01/02 11:10:38;;;;;;;52.63;24.90;;;;;;;;;;5101554;28;20024;-83
2023/01/02 11:13:08;;;;;;;43.70;21.75;;;;;;;;;;5106922;28;20050;-81
2023/01/02 11:15:34;;;;;;;47.22;20.08;;;;;;;;;;5116301;28;20076;-81
2023/01/02 11:18:01;;;;;;;45.65;21.63;;;;;;;;;;5109785;28;20051;-80
2023/01/02 11:20:27;;;;;;;45.50;22.65;;;;;;;;;;5103506;28;20537;-81
2023/01/02 11:22:54;;;;;;;45.53;22.98;;;;;;;;;;5112570;28;20456;-83
2023/01/02 11:25:22;;;;;;;42.63;22.80;;;;;;;;;;5100491;28;20020;-82
2023/01/02 11:27:48;;;;;;;42.83;20.73;;;;;;;;;;5115460;28;20028;-80
2023/01/02 11:30:40;;;;;;;46.45;20.65;;;;;;;;;;5113861;28;20397;-82
2023/01/02 11:33:18;;;;;;;47.58;21.85;;;;;;;;;;5093728;28;20043;-82
2023/01/02 11:35:55;;;;;;;45.60;21.27;;;;;;;;;;5096887;28;20093;-81
2023/01/02 11:38:26;;;;;;;43.47;22.17;;;;;;;;;;5096591;28;20161;-81
2023/01/02 11:41:00;;;;;;;51.53;22.98;;;;;;;;;;5116452;28;20031;-83
2023/01/02 11:43:49;;;;;;;36.03;20.75;;;;;;;;;;5106606;28;20119;-81
2023/01/02 11:46:35;;;;;;;46.97;20.52;;;;;;;;;;5111097;28;20054;-81
2023/01/02 11:49:06;;;;;;;42.33;21.98;;;;;;;;;;5110400;28;20020;-82
2023/01/02 11:51:34;;;;;;;38.33;20.17;;;;;;;;;;5110078;27;20023;-82
2023/01/02 11:54:02;;;;;;;43.17;21.25;;;;;;;;;;5120519;27;20057;-82
2023/01/02 11:56:35;;;;;;;46.95;23.45;;;;;;;;;;5108317;28;20039;-81
2023/01/02 11:59:04;;;;;;;41.83;20.23;;;;;;;;;;5109171;28;20028;-81
2023/01/02 12:01:30;;;;;;;44.13;21.17;;;;;;;;;;5110466;27;20024;-84
2023/01/02 12:03:57;;;;;;;42.53;20.23;;;;;;;;;;5098681;28;20024;-83
2023/01/02 12:06:52;;;;;;;41.63;21.55;;;;;;;;;;5105647;27;20048;-83
2023/01/02 12:09:27;;;;;;;39.85;19.58;;;;;;;;;;5046317;28;20033;-80
2023/01/02 12:12:08;;;;;;;42.17;22.58;;;;;;;;;;5117472;28;20019;-80
2023/01/02 12:14:45;;;;;;;38.28;19.65;;;;;;;;;;5116268;28;20635;-81
2023/01/02 12:17:30;;;;;;;42.45;19.70;;;;;;;;;;5117429;28;20031;-83
2023/01/02 12:20:04;;;;;;;38.97;18.60;;;;;;;;;;5100535;28;20264;-80
2023/01/02 12:22:36;;;;;;;36.60;19.92;;;;;;;;;;5096804;28;20024;-80
2023/01/02 12:25:31;;;;;;;37.22;18.40;;;;;;;;;;5113132;27;20024;-83
2023/01/02 12:28:06;;;;;;;41.92;19.40;;;;;;;;;;5106171;28;20028;-82
2023/01/02 12:30:34;;;;;;;36.00;18.63;;;;;;;;;;5100095;28;20046;-83
2023/01/02 12:33:00;;;;;;;37.95;20.83;;;;;;;;;;5105568;28;20032;-81
2023/01/02 12:35:29;;;;;;;38.47;19.42;;;;;;;;;;5108837;28;20020;-81
2023/01/02 12:38:00;;;;;;;35.20;18.88;;;;;;;;;;5106568;28;20077;-81
2023/01/02 12:40:44;;;;;;;35.42;20.40;;;;;;;;;;5110452;28;20038;-81
2023/01/02 12:43:22;;;;;;;38.15;19.00;;;;;;;;;;5096736;28;20059;-85
2023/01/02 12:45:51;;;;;;;36.83;19.70;;;;;;;;;;5098560;27;20124;-81
2023/01/02 12:48:29;;;;;;;38.20;20.35;;;;;;;;;;5113912;27;20020;-82
2023/01/02 12:51:27;;;;;;;35.97;20.45;;;;;;;;;;5104296;28;20047;-82
2023/01/02 12:54:05;;;;;;;36.28;18.08;;;;;;;;;;5079639;28;20040;-82
2023/01/02 12:56:31;;;;;;;37.92;18.83;;;;;;;;;;5115162;28;20028;-80
2023/01/02 12:59:05;;;;;;;38.95;20.30;;;;;;;;;;5114235;28;20575;-80
2023/01/02 13:01:51;;;;;;;37.60;18.55;;;;;;;;;;5095560;28;20567;-83
2023/01/02 13:04:26;;;;;;;36.50;18.08;;;;;;;;;;5100296;28;20036;-80
2023/01/02 13:07:13;;;;;;;35.17;19.33;;;;;;;;;;5113703;28;20490;-80
2023/01/02 13:09:40;;;;;;;30.35;17.00;;;;;;;;;;5099106;28;20142;-81
2023/01/02 13:12:13;;;;;;;33.13;16.50;;;;;;;;;;5110322;28;20030;-81
2023/01/02 13:14:59;;;;;;;32.38;16.60;;;;;;;;;;5113300;28;20493;-79
2023/01/02 13:17:41;;;;;;;37.22;17.55;;;;;;;;;;5098105;27;20039;-81
2023/01/02 13:20:19;;;;;;;31.85;17.80;;;;;;;;;;5097040;28;20028;-82
2023/01/02 13:22:50;;;;;;;33.08;17.13;;;;;;;;;;5101562;28;20027;-81
2023/01/02 13:25:18;;;;;;;29.80;16.98;;;;;;;;;;5108955;27;20477;-81
2023/01/02 13:27:44;;;;;;;29.33;17.33;;;;;;;;;;5102611;27;20028;-79
2023/01/02 13:30:29;;;;;;;39.13;19.35;;;;;;;;;;5104570;28;20023;-80
2023/01/02 13:32:57;;;;;;;31.95;16.58;;;;;;;;;;5109747;28;20053;-82
2023/01/02 13:35:23;;;;;;;32.58;15.52;;;;;;;;;;5106004;27;20031;-79
2023/01/02 13:37:50;;;;;;;34.78;16.90;;;;;;;;;;5104067;27;20035;-82
2023/01/02 13:40:24;;;;;;;33.72;16.52;;;;;;;;;;5094650;28;20118;-80
2023/01/02 13:43:02;;;;;;;35.13;17.85;;;;;;;;;;5102895;28;20609;-81
2023/01/02 13:45:29;;;;;;;36.42;19.33;;;;;;;;;;5101840;28;20034;-82
2023/01/02 13:47:57;;;;;;;29.23;17.45;;;;;;;;;;5110675;28;20023;-79
2023/01/02 13:50:31;;;;;;;39.67;18.50;;;;;;;;;;5095159;28;20035;-81
2023/01/02 13:53:09;;;;;;;32.45;16.88;;;;;;;;;;5107254;28;20034;-81
2023/01/02 13:55:36;;;;;;;30.63;15.07;;;;;;;;;;5109328;28;20055;-81
2023/01/02 13:58:16;;;;;;;30.67;16.35;;;;;;;;;;5115454;28;20034;-79
2023/01/02 14:00:55;;;;;;;31.15;17.13;;;;;;;;;;5109940;28;20321;-81
2023/01/02 14:03:22;;;;;;;35.35;17.55;;;;;;;;;;5102757;28;20412;-82
2023/01/02 14:05:57;;;;;;;30.92;16.35;;;;;;;;;;5098145;28;20027;-81
2023/01/02 14:08:31;;;;;;;34.47;17.20;;;;;;;;;;5097819;28;20028;-80
2023/01/02 14:11:12;;;;;;;29.13;15.38;;;;;;;;;;5094943;28;20500;-81
2023/01/02 14:13:46;;;;;;;34.67;16.48;;;;;;;;;;5100658;28;20058;-81
2023/01/02 14:16:15;;;;;;;31.83;16.70;;;;;;;;;;5102911;28;20401;-82
2023/01/02 14:18:41;;;;;;;32.13;16.40;;;;;;;;;;5125843;28;20062;-81
2023/01/02 14:21:08;;;;;;;31.73;18.27;;;;;;;;;;5136251;28;20015;-81
2023/01/02 14:23:40;;;;;;;35.13;16.77;;;;;;;;;;5103046;28;20214;-78
2023/01/02 14:26:06;;;;;;;36.50;16.98;;;;;;;;;;5108762;28;20035;-79
2023/01/02 14:28:36;;;;;;;31.65;15.80;;;;;;;;;;5125788;28;20028;-81
2023/01/02 14:31:13;;;;;;;42.28;19.02;;;;;;;;;;5125441;28;20026;-82
2023/01/02 14:33:39;;;;;;;29.95;16.00;;;;;;;;;;5102525;28;20028;-80